Main page
METAR-TAF:

METAR-TAF

Airports :

Kuwait City, Kuwait

Kuwait International Airport

latitude: 29-13N, longitude: 047-59E, elevation: 55 m

Current weather observation

The report was made 37 minutes ago, at 20:00 UTC
Wind 14 kt from the North/Northwest
Temperature 35°C
Humidity 17%
Pressure 1004 hPa
Visibility 10 km or more
no clouds below 1500 m and no cumulonimbus

METAR: OKBK 232000Z 34014KT CAVOK 35/06 Q1004 NOSIG

Time: 23:37 (20:37 UTC)

Forecast

The report was made 3 hours and 37 minutes ago, at 17:00 UTC
Forecast valid from 23 at 18 UTC to 24 at 24 UTC
Wind 12 kt from the North/Northwest with gusts up to 25 kt
Visibility: 7000 m
Clear sky
Temporary
from 23 at 18 UTC to 24 at 09 UTC
Visibility: 3000 m
Blowing dust

TAF: OKBK 231700Z 2318/2424 34012G25KT 7000 SKC TEMPO 2318/2409 3000 BLDU

Weather observations and forecasts of more than 4000 airports (METAR and TAF reports).

The available stations are represented by yellow and red dots on the map.

Hover mouse over dot to see the name of the station.

Then click to see weather observations and forecasts.

To change the map : click on the green buttons with a black cross to zoom in, on the green button with a dash to zoom out, or on the green arrows for adjacent maps.


METAR-TAF: